Platzwetter Flugplatz Wels

Flugwetter Linz LOWL

[Quelle: ADDS]
METAR
LOWL 140320Z 25002KT 9999 FEW060 11/09 Q1018 BECMG 09007KT =
LOWL 132315Z 1400/1424 08005KT CAVOK TX24/1414Z TN11/1403Z
TAF
LOWL 132315Z 1400/1424 08005KT CAVOK TX24/1414Z TN11/1403Z =

Flugwetter Salzburg LOWS

[Quelle: ADDS]
METAR
LOWS 140320Z AUTO VRB01KT 9999 NCD 10/09 Q1018 =
LOWS 132315Z 1400/1424 15005KT CAVOK TX22/1415Z TN11/1402Z BECMG 1407/1409 34005KT 9999 FEW060 BECMG 1418/1420 15005KT CAVOK
TAF
LOWS 132315Z 1400/1424 15005KT CAVOK TX22/1415Z TN11/1402Z BECMG 1407/1409 34005KT 9999 FEW060 BECMG 1418/1420 15005KT CAVOK =

Wind - Verlauf

Windrichtung - Verlauf

Temperatur - Verlauf

Relative Luftfeuchtigkeit - Verlauf

Luftdruck - Verlauf

Cookies erleichtern die Bereitstellung unserer Dienste. Mit der Nutzung unserer Dienste erklären Sie sich damit einverstanden, dass wir Cookies verwenden.
Weitere Informationen Ok